createdAt,value
2022-11-09T00:01:04.357Z,2.70
2022-11-09T00:03:31.107Z,2.97
2022-11-09T00:05:59.698Z,3.05
2022-11-09T00:08:26.895Z,3.35
2022-11-09T00:10:53.760Z,3.50
2022-11-09T00:13:21.029Z,3.25
2022-11-09T00:15:48.066Z,2.70
2022-11-09T00:18:14.853Z,2.70
2022-11-09T00:20:47.722Z,3.22
2022-11-09T00:23:16.878Z,3.83
2022-11-09T00:25:44.424Z,2.80
2022-11-09T00:28:11.287Z,3.45
2022-11-09T00:30:38.023Z,3.58
2022-11-09T00:33:04.827Z,3.30
2022-11-09T00:35:31.693Z,3.17
2022-11-09T00:37:58.533Z,3.33
2022-11-09T00:40:25.346Z,3.53
2022-11-09T00:42:52.157Z,3.20
2022-11-09T00:45:18.938Z,3.38
2022-11-09T00:47:45.692Z,3.13
2022-11-09T00:50:12.494Z,3.53
2022-11-09T00:52:39.249Z,3.63
2022-11-09T00:55:06.358Z,3.45
2022-11-09T00:57:33.088Z,2.97
2022-11-09T00:59:59.831Z,2.50
2022-11-09T01:02:26.552Z,3.00
2022-11-09T01:04:53.284Z,2.83
2022-11-09T01:07:20.045Z,3.67
2022-11-09T01:09:47.896Z,2.97
2022-11-09T01:12:14.665Z,3.17
2022-11-09T01:14:41.386Z,2.60
2022-11-09T01:17:08.233Z,2.63
2022-11-09T01:19:34.974Z,2.72
2022-11-09T01:22:01.704Z,3.10
2022-11-09T01:24:28.466Z,2.88
2022-11-09T01:26:55.187Z,3.13
2022-11-09T01:29:21.949Z,3.78
2022-11-09T01:31:49.138Z,3.10
2022-11-09T01:34:17.579Z,3.15
2022-11-09T01:36:44.425Z,3.05
2022-11-09T01:39:11.201Z,3.80
2022-11-09T01:41:37.974Z,3.38
2022-11-09T01:44:20.158Z,3.70
2022-11-09T01:46:57.608Z,3.63
2022-11-09T01:49:50.106Z,3.58
2022-11-09T01:52:34.244Z,3.57
2022-11-09T01:55:16.167Z,4.68
2022-11-09T01:57:54.826Z,3.70
2022-11-09T02:00:21.841Z,4.10
2022-11-09T02:02:56.440Z,3.53
2022-11-09T02:05:30.194Z,3.88
2022-11-09T02:08:01.846Z,4.95
2022-11-09T02:10:41.103Z,3.15
2022-11-09T02:13:09.342Z,3.78
2022-11-09T02:15:39.161Z,4.13
2022-11-09T02:18:09.794Z,3.65
2022-11-09T02:20:50.401Z,2.72
2022-11-09T02:23:19.679Z,3.08
2022-11-09T02:26:00.245Z,3.42
2022-11-09T02:28:27.826Z,4.22
2022-11-09T02:30:56.633Z,3.58
2022-11-09T02:33:23.814Z,3.60
2022-11-09T02:35:50.759Z,3.78
2022-11-09T02:38:17.605Z,4.15
2022-11-09T02:40:48.759Z,3.38
2022-11-09T02:43:17.155Z,3.85
2022-11-09T02:45:44.152Z,4.00
2022-11-09T02:48:10.921Z,3.72
2022-11-09T02:50:37.690Z,3.53
2022-11-09T02:53:04.530Z,4.13
2022-11-09T02:55:31.349Z,2.90
2022-11-09T02:57:58.088Z,3.10
2022-11-09T03:00:24.848Z,3.55
2022-11-09T03:02:51.769Z,3.10
2022-11-09T03:05:18.688Z,4.15
2022-11-09T03:07:45.414Z,3.13
2022-11-09T03:10:12.350Z,3.30
2022-11-09T03:12:39.123Z,3.42
2022-11-09T03:15:08.684Z,2.75
2022-11-09T03:17:35.790Z,3.20
2022-11-09T03:20:02.702Z,4.00
2022-11-09T03:22:29.700Z,3.20
2022-11-09T03:24:56.514Z,3.35
2022-11-09T03:27:23.275Z,2.85
2022-11-09T03:29:50.157Z,2.97
2022-11-09T03:32:16.977Z,3.83
2022-11-09T03:34:43.785Z,2.95
2022-11-09T03:37:10.594Z,3.90
2022-11-09T03:39:37.350Z,4.15
2022-11-09T03:42:04.361Z,6.63
2022-11-09T03:44:31.089Z,4.85
2022-11-09T03:46:57.844Z,3.55
2022-11-09T03:49:24.563Z,2.67
2022-11-09T03:51:51.790Z,2.85
2022-11-09T03:54:18.587Z,3.97
2022-11-09T03:56:45.357Z,3.47
2022-11-09T03:59:12.100Z,4.40
2022-11-09T04:01:38.999Z,3.50
2022-11-09T04:04:05.765Z,3.40
2022-11-09T04:06:32.678Z,3.80
2022-11-09T04:08:59.464Z,3.35
2022-11-09T04:11:26.253Z,3.45
2022-11-09T04:13:52.975Z,3.05
2022-11-09T04:16:19.744Z,3.85
2022-11-09T04:18:46.536Z,3.55
2022-11-09T04:21:13.305Z,3.28
2022-11-09T04:23:40.082Z,3.55
2022-11-09T04:26:06.822Z,3.10
2022-11-09T04:28:33.700Z,3.13
2022-11-09T04:31:02.136Z,3.58
2022-11-09T04:33:29.509Z,4.30
2022-11-09T04:36:02.665Z,3.22
2022-11-09T04:38:29.371Z,3.80
2022-11-09T04:41:01.389Z,4.03
2022-11-09T04:43:28.643Z,3.67
2022-11-09T04:45:55.892Z,3.45
2022-11-09T04:48:22.800Z,3.50
2022-11-09T04:50:49.551Z,3.90
2022-11-09T04:53:16.534Z,4.50
2022-11-09T04:55:43.337Z,5.00
2022-11-09T04:58:10.720Z,4.90
2022-11-09T05:00:38.036Z,3.58
2022-11-09T05:03:06.692Z,4.28
2022-11-09T05:05:35.476Z,4.13
2022-11-09T05:08:03.378Z,4.25
2022-11-09T05:10:30.574Z,3.45
2022-11-09T05:13:02.953Z,3.90
2022-11-09T05:15:30.342Z,3.58
2022-11-09T05:17:57.624Z,4.38
2022-11-09T05:20:25.438Z,3.60
2022-11-09T05:23:10.587Z,4.00
2022-11-09T05:25:37.331Z,4.07
2022-11-09T05:28:04.440Z,4.75
2022-11-09T05:30:31.778Z,3.65
2022-11-09T05:32:58.521Z,4.85
2022-11-09T05:35:25.337Z,6.35
2022-11-09T05:37:52.172Z,6.10
2022-11-09T05:40:20.476Z,6.85
2022-11-09T05:42:47.961Z,5.25
2022-11-09T05:48:05.167Z,4.93
2022-11-09T05:50:32.652Z,4.40
2022-11-09T05:53:00.691Z,4.97
2022-11-09T05:55:28.125Z,5.45
2022-11-09T05:57:55.445Z,5.00
2022-11-09T06:00:22.709Z,4.25
2022-11-09T06:02:50.043Z,4.85
2022-11-09T06:05:17.172Z,6.70
2022-11-09T06:07:43.980Z,8.10
2022-11-09T06:10:10.774Z,7.55
2022-11-09T06:12:37.671Z,18.20
2022-11-09T06:15:05.712Z,16.67
2022-11-09T06:17:32.461Z,16.75
2022-11-09T06:19:59.204Z,9.50
2022-11-09T06:22:25.973Z,11.43
2022-11-09T06:24:52.725Z,10.55
2022-11-09T06:27:19.474Z,15.55
2022-11-09T06:29:46.365Z,26.63
2022-11-09T06:32:13.081Z,24.42
2022-11-09T06:34:39.820Z,18.23
2022-11-09T06:37:06.541Z,27.08
2022-11-09T06:39:33.262Z,14.10
2022-11-09T06:42:00.006Z,9.07
2022-11-09T06:44:26.722Z,10.07
2022-11-09T06:46:53.452Z,7.78
2022-11-09T06:49:20.296Z,5.82
2022-11-09T06:51:47.085Z,6.25
2022-11-09T06:54:13.894Z,5.13
2022-11-09T06:56:40.638Z,6.50
2022-11-09T06:59:07.944Z,6.35
2022-11-09T07:01:34.777Z,6.07
2022-11-09T07:04:01.585Z,5.85
2022-11-09T07:06:28.408Z,5.38
2022-11-09T07:08:56.673Z,7.10
2022-11-09T07:11:23.475Z,7.68
2022-11-09T07:13:54.785Z,6.05
2022-11-09T07:16:23.084Z,5.13
2022-11-09T07:18:49.861Z,4.85
2022-11-09T07:21:17.095Z,4.10
2022-11-09T07:23:43.890Z,12.88
2022-11-09T07:26:10.673Z,8.93
2022-11-09T07:28:37.456Z,6.25
2022-11-09T07:31:04.887Z,13.25
2022-11-09T07:33:33.471Z,15.27
2022-11-09T07:36:01.433Z,21.08
2022-11-09T07:38:31.850Z,35.30
2022-11-09T07:41:03.051Z,8.13
2022-11-09T07:43:30.076Z,16.63
2022-11-09T07:45:57.259Z,13.05
2022-11-09T07:48:24.458Z,4.57
2022-11-09T07:50:51.308Z,6.95
2022-11-09T07:53:18.364Z,3.97
2022-11-09T07:55:45.237Z,3.00
2022-11-09T07:58:15.207Z,2.35
2022-11-09T08:00:43.941Z,2.30
2022-11-09T08:03:11.264Z,1.67
2022-11-09T08:05:39.235Z,2.03
2022-11-09T08:08:10.448Z,2.15
2022-11-09T08:10:38.411Z,2.25
2022-11-09T08:13:09.980Z,3.55
2022-11-09T08:15:38.395Z,3.28
2022-11-09T08:18:08.869Z,3.88
2022-11-09T08:20:35.655Z,2.53
2022-11-09T08:23:04.772Z,1.65
2022-11-09T08:25:34.320Z,2.20
2022-11-09T08:28:01.338Z,2.65
2022-11-09T08:30:28.088Z,2.20
2022-11-09T08:32:55.219Z,2.28
2022-11-09T08:35:24.641Z,1.95
2022-11-09T08:37:52.936Z,3.90
2022-11-09T08:40:24.188Z,3.53
2022-11-09T08:42:52.101Z,2.28
2022-11-09T08:45:19.936Z,2.35
2022-11-09T08:47:47.471Z,2.30
2022-11-09T08:50:15.707Z,5.60
2022-11-09T08:52:43.285Z,2.45
2022-11-09T08:55:10.471Z,1.65
2022-11-09T08:57:37.878Z,2.72
2022-11-09T09:00:06.132Z,2.00
2022-11-09T09:02:33.093Z,1.98
2022-11-09T09:04:59.927Z,1.65
2022-11-09T09:07:26.893Z,2.58
2022-11-09T09:09:53.664Z,2.65
2022-11-09T09:12:20.530Z,2.25
2022-11-09T09:14:47.373Z,1.92
2022-11-09T09:17:14.440Z,1.27
2022-11-09T09:19:43.822Z,1.55
2022-11-09T09:22:14.087Z,2.42
2022-11-09T09:24:40.819Z,1.73
2022-11-09T09:27:07.546Z,1.45
2022-11-09T09:29:34.762Z,1.27
2022-11-09T09:32:01.506Z,1.35
2022-11-09T09:34:28.224Z,1.27
2022-11-09T09:36:55.669Z,1.58
2022-11-09T09:39:22.528Z,1.83
2022-11-09T09:41:59.540Z,1.27
2022-11-09T09:44:43.171Z,1.23
2022-11-09T09:47:18.968Z,2.65
2022-11-09T09:50:15.246Z,1.70
2022-11-09T09:53:24.223Z,2.15
2022-11-09T09:55:56.998Z,1.27
2022-11-09T09:58:28.197Z,1.50
2022-11-09T10:01:07.591Z,1.52
2022-11-09T10:03:34.352Z,1.50
2022-11-09T10:06:19.885Z,1.73
2022-11-09T10:08:58.528Z,1.35
2022-11-09T10:12:05.444Z,1.00
2022-11-09T10:14:56.308Z,1.52
2022-11-09T10:17:58.352Z,1.02
2022-11-09T10:20:52.674Z,1.23
2022-11-09T10:23:29.136Z,0.77
2022-11-09T10:26:15.777Z,0.95
2022-11-09T10:31:34.027Z,1.08
2022-11-09T10:34:16.698Z,1.45
2022-11-09T10:36:59.721Z,0.70
2022-11-09T10:39:41.429Z,1.00
2022-11-09T10:42:11.557Z,1.50
2022-11-09T10:44:38.657Z,1.13
2022-11-09T10:47:17.863Z,0.98
2022-11-09T10:49:44.674Z,0.82
2022-11-09T10:52:44.262Z,0.75
2022-11-09T10:55:28.620Z,0.90
2022-11-09T10:57:58.640Z,1.05
2022-11-09T11:00:25.763Z,1.02
2022-11-09T11:02:54.373Z,1.20
2022-11-09T11:05:28.520Z,1.20
2022-11-09T11:07:55.794Z,2.25
2022-11-09T11:10:23.577Z,2.35
2022-11-09T11:13:13.465Z,1.80
2022-11-09T11:15:42.598Z,1.02
2022-11-09T11:18:25.172Z,1.35
2022-11-09T11:21:18.976Z,0.90
2022-11-09T11:24:13.431Z,1.42
2022-11-09T11:26:57.595Z,0.73
2022-11-09T11:29:46.752Z,0.70
2022-11-09T11:32:19.475Z,1.00
2022-11-09T11:35:03.971Z,0.55
2022-11-09T11:38:26.936Z,1.38
2022-11-09T11:41:24.329Z,1.15
2022-11-09T11:44:29.543Z,0.90
2022-11-09T11:47:10.039Z,0.77
2022-11-09T11:49:50.161Z,0.88
2022-11-09T11:52:33.061Z,0.40
2022-11-09T11:55:20.631Z,0.70
2022-11-09T11:58:23.877Z,0.80
2022-11-09T12:01:13.407Z,0.40
2022-11-09T12:04:32.388Z,0.60
2022-11-09T12:07:29.464Z,0.60
2022-11-09T12:10:02.161Z,0.95
2022-11-09T12:13:08.456Z,1.20
2022-11-09T12:15:48.157Z,1.10
2022-11-09T12:18:20.578Z,0.88
2022-11-09T12:21:20.868Z,1.15
2022-11-09T12:24:15.545Z,1.20
2022-11-09T12:27:30.594Z,0.82
2022-11-09T12:29:59.703Z,0.80
2022-11-09T12:32:56.396Z,0.88
2022-11-09T12:35:30.566Z,0.65
2022-11-09T12:38:13.072Z,0.70
2022-11-09T12:40:58.651Z,0.38
2022-11-09T12:43:50.109Z,0.55
2022-11-09T12:46:21.327Z,0.52
2022-11-09T12:48:48.996Z,0.60
2022-11-09T12:51:16.769Z,0.60
2022-11-09T12:53:43.531Z,0.47
2022-11-09T12:56:23.997Z,0.60
2022-11-09T12:58:50.804Z,0.50
2022-11-09T13:01:26.361Z,0.38
2022-11-09T13:03:59.163Z,0.40
2022-11-09T13:06:33.292Z,0.73
2022-11-09T13:09:15.521Z,0.70
2022-11-09T13:11:48.377Z,0.73
2022-11-09T13:14:29.211Z,0.98
2022-11-09T13:17:00.707Z,1.27
2022-11-09T13:19:37.623Z,1.38
2022-11-09T13:22:16.393Z,1.30
2022-11-09T13:25:00.205Z,0.68
2022-11-09T13:27:33.072Z,0.80
2022-11-09T13:30:01.578Z,0.98
2022-11-09T13:32:30.457Z,1.63
2022-11-09T13:35:04.910Z,1.17
2022-11-09T13:37:48.124Z,1.30
2022-11-09T13:42:42.894Z,1.20
2022-11-09T13:45:36.353Z,1.30
2022-11-09T13:50:33.468Z,1.90
2022-11-09T13:53:03.095Z,2.67
2022-11-09T13:55:39.486Z,3.00
2022-11-09T13:58:23.161Z,3.10
2022-11-09T14:00:49.944Z,3.00
2022-11-09T14:03:26.174Z,1.05
2022-11-09T14:05:58.311Z,1.30
2022-11-09T14:08:40.300Z,1.27
2022-11-09T14:11:37.902Z,0.88
2022-11-09T14:14:34.075Z,1.50
2022-11-09T14:17:37.730Z,0.68
2022-11-09T14:20:21.773Z,0.98
2022-11-09T14:22:48.688Z,0.75
2022-11-09T14:25:19.195Z,0.57
2022-11-09T14:27:57.516Z,0.85
2022-11-09T14:30:30.729Z,1.33
2022-11-09T14:32:58.832Z,0.93
2022-11-09T14:35:36.946Z,0.88
2022-11-09T14:38:23.858Z,0.60
2022-11-09T14:40:53.533Z,0.75
2022-11-09T14:43:31.662Z,3.65
2022-11-09T14:46:02.129Z,2.42
2022-11-09T14:48:31.769Z,3.42
2022-11-09T14:51:04.123Z,3.55
2022-11-09T14:53:42.681Z,2.10
2022-11-09T14:56:15.177Z,3.10
2022-11-09T14:58:44.096Z,1.80
2022-11-09T15:01:20.224Z,1.52
2022-11-09T15:04:16.054Z,0.80
2022-11-09T15:07:04.064Z,0.70
2022-11-09T15:09:45.087Z,1.40
2022-11-09T15:12:17.117Z,1.45
2022-11-09T15:14:54.418Z,1.58
2022-11-09T15:17:36.902Z,1.55
2022-11-09T15:20:09.636Z,1.00
2022-11-09T15:23:11.412Z,1.10
2022-11-09T15:25:41.781Z,2.30
2022-11-09T15:28:12.751Z,1.73
2022-11-09T15:31:09.268Z,0.80
2022-11-09T15:36:46.091Z,1.55
2022-11-09T15:39:26.844Z,1.10
2022-11-09T15:42:13.030Z,1.35
2022-11-09T15:45:01.679Z,1.60
2022-11-09T15:48:18.730Z,2.65
2022-11-09T15:55:08.970Z,1.87
2022-11-09T16:07:24.134Z,2.22
2022-11-09T16:10:20.902Z,2.85
2022-11-09T16:13:07.859Z,3.13
2022-11-09T16:15:36.896Z,3.83
2022-11-09T16:18:05.056Z,4.35
2022-11-09T16:20:31.970Z,3.13
2022-11-09T16:22:59.149Z,3.88
2022-11-09T16:25:27.212Z,3.08
2022-11-09T16:27:54.194Z,2.10
2022-11-09T16:30:21.734Z,1.90
2022-11-09T16:32:48.510Z,2.63
2022-11-09T16:35:30.701Z,2.22
2022-11-09T16:37:58.147Z,3.45
2022-11-09T16:40:27.061Z,3.90
2022-11-09T16:42:53.820Z,5.70
2022-11-09T16:45:21.649Z,3.70
2022-11-09T16:47:52.469Z,4.10
2022-11-09T16:50:19.229Z,4.28
2022-11-09T16:52:45.988Z,4.68
2022-11-09T16:55:13.820Z,37.47
2022-11-09T16:57:40.935Z,20.08
2022-11-09T17:00:09.613Z,9.70
2022-11-09T17:02:36.393Z,9.93
2022-11-09T17:05:04.065Z,8.20
2022-11-09T17:07:31.954Z,7.22
2022-11-09T17:09:58.775Z,6.47
2022-11-09T17:12:25.545Z,7.68
2022-11-09T17:14:52.363Z,7.30
2022-11-09T17:17:22.582Z,6.30
2022-11-09T17:19:49.938Z,7.38
2022-11-09T17:22:17.498Z,7.13
2022-11-09T17:24:44.541Z,6.07
2022-11-09T17:27:12.191Z,5.25
2022-11-09T17:29:39.881Z,3.95
2022-11-09T17:32:09.170Z,5.45
2022-11-09T17:34:36.287Z,4.93
2022-11-09T17:37:05.443Z,5.30
2022-11-09T17:39:33.454Z,5.18
2022-11-09T17:42:00.259Z,5.05
2022-11-09T17:44:27.175Z,3.58
2022-11-09T17:46:54.007Z,5.55
2022-11-09T17:49:20.848Z,8.05
2022-11-09T17:51:47.637Z,13.50
2022-11-09T17:54:15.172Z,15.15
2022-11-09T17:56:42.185Z,22.35
2022-11-09T17:59:09.349Z,22.15
2022-11-09T18:01:41.523Z,34.95
2022-11-09T18:04:11.336Z,25.73
2022-11-09T18:06:39.033Z,14.23
2022-11-09T18:11:53.180Z,9.85
2022-11-09T18:14:20.240Z,10.05
2022-11-09T18:16:47.132Z,11.73
2022-11-09T18:19:14.097Z,15.82
2022-11-09T18:21:41.499Z,13.98
2022-11-09T18:24:08.885Z,72.25
2022-11-09T18:26:35.770Z,35.40
2022-11-09T18:29:02.512Z,17.08
2022-11-09T18:31:32.180Z,8.70
2022-11-09T18:33:59.014Z,5.10
2022-11-09T18:36:26.306Z,5.65
2022-11-09T18:38:55.884Z,7.30
2022-11-09T18:41:25.245Z,5.50
2022-11-09T18:43:54.012Z,5.10
2022-11-09T18:46:22.311Z,6.07
2022-11-09T18:48:53.487Z,5.50
2022-11-09T18:51:20.268Z,6.95
2022-11-09T18:53:48.493Z,6.72
2022-11-09T18:56:23.491Z,6.22
2022-11-09T18:58:53.110Z,5.22
2022-11-09T19:01:23.102Z,5.05
2022-11-09T19:03:54.994Z,7.05
2022-11-09T19:06:24.966Z,8.07
2022-11-09T19:09:10.237Z,6.88
2022-11-09T19:11:37.531Z,4.80
2022-11-09T19:14:04.318Z,4.22
2022-11-09T19:16:31.527Z,3.42
2022-11-09T19:18:59.358Z,3.60
2022-11-09T19:21:35.984Z,3.40
2022-11-09T19:24:03.554Z,3.45
2022-11-09T19:26:30.602Z,3.25
2022-11-09T19:28:57.374Z,4.57
2022-11-09T19:31:25.048Z,5.43
2022-11-09T19:33:52.674Z,4.60
2022-11-09T19:36:30.200Z,3.60
2022-11-09T19:38:58.893Z,3.85
2022-11-09T19:41:26.316Z,3.88
2022-11-09T19:43:58.501Z,3.85
2022-11-09T19:46:27.709Z,3.78
2022-11-09T19:48:54.579Z,3.67
2022-11-09T19:51:21.480Z,2.80
2022-11-09T19:53:53.470Z,3.05
2022-11-09T19:56:22.214Z,3.42
2022-11-09T19:58:51.326Z,3.70
2022-11-09T20:01:18.964Z,3.53
2022-11-09T20:03:52.803Z,4.25
2022-11-09T20:06:24.711Z,4.10
2022-11-09T20:08:52.347Z,12.15
2022-11-09T20:11:40.844Z,30.20
2022-11-09T20:14:09.083Z,23.60
2022-11-09T20:16:37.355Z,24.50
2022-11-09T20:19:06.759Z,19.98
2022-11-09T20:21:33.607Z,10.55
2022-11-09T20:24:00.498Z,10.70
2022-11-09T20:26:28.570Z,9.80
2022-11-09T20:28:56.077Z,23.75
2022-11-09T20:31:23.658Z,16.33
2022-11-09T20:33:50.941Z,9.93
2022-11-09T20:36:19.007Z,10.57
2022-11-09T20:38:47.203Z,7.60
2022-11-09T20:41:14.296Z,5.13
2022-11-09T20:43:41.445Z,4.95
2022-11-09T20:46:16.020Z,6.57
2022-11-09T20:48:59.242Z,5.65
2022-11-09T20:51:26.455Z,5.25
2022-11-09T20:53:53.295Z,4.65
2022-11-09T20:56:21.046Z,7.07
2022-11-09T20:58:48.270Z,6.32
2022-11-09T21:01:21.598Z,5.53
2022-11-09T21:03:50.985Z,4.10
2022-11-09T21:06:18.581Z,4.78
2022-11-09T21:08:51.155Z,7.85
2022-11-09T21:11:19.133Z,6.18
2022-11-09T21:13:53.388Z,6.22
2022-11-09T21:16:22.471Z,6.72
2022-11-09T21:18:49.335Z,6.53
2022-11-09T21:21:19.788Z,5.45
2022-11-09T21:24:05.691Z,5.68
2022-11-09T21:26:51.623Z,4.40
2022-11-09T21:29:40.193Z,3.25
2022-11-09T21:32:07.899Z,4.28
2022-11-09T21:34:37.046Z,4.13
2022-11-09T21:37:04.862Z,4.45
2022-11-09T21:39:32.057Z,3.88
2022-11-09T21:41:58.976Z,4.25
2022-11-09T21:44:29.436Z,4.82
2022-11-09T21:46:56.204Z,4.32
2022-11-09T21:49:23.143Z,3.53
2022-11-09T21:51:49.931Z,3.00
2022-11-09T21:54:17.161Z,3.92
2022-11-09T21:56:44.215Z,4.05
2022-11-09T21:59:10.970Z,4.38
2022-11-09T22:01:37.765Z,3.45
2022-11-09T22:04:04.945Z,3.15
2022-11-09T22:06:31.730Z,3.92
2022-11-09T22:08:58.523Z,3.13
2022-11-09T22:11:45.742Z,4.97
2022-11-09T22:14:37.579Z,4.30
2022-11-09T22:17:08.702Z,4.28
2022-11-09T22:19:57.120Z,4.70
2022-11-09T22:22:25.844Z,4.25
2022-11-09T22:24:52.660Z,3.90
2022-11-09T22:27:19.400Z,4.97
2022-11-09T22:29:46.120Z,4.18
2022-11-09T22:32:12.816Z,5.65
2022-11-09T22:34:39.571Z,5.30
2022-11-09T22:37:06.293Z,6.00
2022-11-09T22:39:33.051Z,4.68
2022-11-09T22:42:00.800Z,5.25
2022-11-09T22:44:27.598Z,4.45
2022-11-09T22:46:54.369Z,3.75
2022-11-09T22:49:21.131Z,4.22
2022-11-09T22:51:48.155Z,4.72
2022-11-09T22:54:14.966Z,4.82
2022-11-09T22:56:41.690Z,4.35
2022-11-09T22:59:08.504Z,3.47
2022-11-09T23:01:35.287Z,4.45
2022-11-09T23:04:02.030Z,5.10
2022-11-09T23:06:29.338Z,4.55
2022-11-09T23:08:56.158Z,3.67
2022-11-09T23:11:25.121Z,4.43
2022-11-09T23:13:54.016Z,5.05
2022-11-09T23:16:22.444Z,4.45
2022-11-09T23:18:55.358Z,4.25
2022-11-09T23:21:28.724Z,4.38
2022-11-09T23:23:58.681Z,4.88
2022-11-09T23:26:26.538Z,4.75
2022-11-09T23:28:54.212Z,6.32
2022-11-09T23:31:24.455Z,5.20
2022-11-09T23:33:58.078Z,5.28
2022-11-09T23:36:26.519Z,5.65
2022-11-09T23:38:53.614Z,2.72
2022-11-09T23:41:21.278Z,1.63
2022-11-09T23:43:49.898Z,1.50
2022-11-09T23:46:17.564Z,1.73
2022-11-09T23:48:44.524Z,1.10
2022-11-09T23:51:11.634Z,0.82
2022-11-09T23:53:39.198Z,0.60
2022-11-09T23:56:09.730Z,0.80
2022-11-09T23:58:37.275Z,0.60
